Meteoalarm - Portugal e Ilhas:

Avisos Meteorológicos para Portugal e Ilhas


Visite-nos no Facebook:

Visite-nos no Facebook


Madeira Webcams:


Grupo MeteoRAM Facebook:

Junte-se ao melhor e mais completo grupo de Meteorologia da Região Autónoma da Madeira



Situação meteorológica que não inspira cuidado.    Sem avisos

Weather Underground Histórico da Estação

Diário Resumo para Outubro 23, 2017 Unidades:  Métrico    Inglês   Ambos
« Anterior Dia
Seguinte Dia »
Diário Semanal Mensal Anual Personalizado
  Atualmente: Alto: Baixo: Média:
Temperatura: 20.8 °C 21.2 °C 20.3 °C 20.6 °C
Ponto de orvalho: 2.6 °C 3.6 °C -1.1 °C 1.3 °C
Humidade: 30 % 33 % 23 % 28 %
Velocidade do Vento: 3.5 km/h 12.2 km/h 0 km/h 3.7 km/h
Rajada de vento: 7.2 km/h 24.5 km/h - -
Vento:NNW - - NW
Pressão Atmosférica: 1022.2 hPa 1024.3 hPa 1019.9 hPa -
Precipitação: 0 mm      
Historical Graphs
 
 
Dados Tabulares para Outubro 23, 2017
Hora Temperatura Ponto de orvalho Pressão Atmosférica Vento Velocidade do Vento Rajada de vento Humidade Taxa de Precipitação (Por hora)
00:00 21.2 °C 0.4 °C 1024.3 hPa NW 5 km/h 24.5 km/h 25 % 0 mm
00:05 21.2 °C 0.4 °C 1024.3 hPa NW 2.6 km/h 24.5 km/h 25 % 0 mm
00:10 21.2 °C 0.9 °C 1024.3 hPa NW 9.7 km/h 15.8 km/h 26 % 0 mm
00:15 21.2 °C 0.9 °C 1024.3 hPa WNW 3.5 km/h 24.5 km/h 26 % 0 mm
00:20 21.1 °C 0.8 °C 1024.3 hPa WNW 12.2 km/h 24.5 km/h 26 % 0 mm
00:25 21.1 °C 0.8 °C 1024.3 hPa NW 5 km/h 24.5 km/h 26 % 0 mm
00:30 21.1 °C 0.8 °C 1023.9 hPa WNW 6.1 km/h 24.5 km/h 26 % 0 mm
00:35 21 °C 0.8 °C 1024.3 hPa WNW 3.5 km/h 12.2 km/h 26 % 0 mm
00:40 21 °C 0.2 °C 1023.9 hPa WNW 9.7 km/h 17.2 km/h 25 % 0 mm
00:45 20.9 °C 0.7 °C 1024.3 hPa NNW 2.6 km/h 17.2 km/h 26 % 0 mm
00:50 20.9 °C 0.2 °C 1024.3 hPa NNE 2.6 km/h 17.2 km/h 25 % 0 mm
00:55 20.8 °C -0.5 °C 1024.3 hPa North 5 km/h 12.2 km/h 24 % 0 mm
01:00 20.8 °C -0.5 °C 1024.3 hPa NW 3.5 km/h 11.1 km/h 24 % 0 mm
01:05 20.8 °C -1.1 °C 1024.3 hPa WNW 3.5 km/h 12.2 km/h 23 % 0 mm
01:10 20.7 °C -0.6 °C 1023.9 hPa NW 3.5 km/h 12.2 km/h 24 % 0 mm
01:15 20.7 °C -0.6 °C 1023.9 hPa NNW 3.5 km/h 11.1 km/h 24 % 0 mm
01:20 20.7 °C 0 °C 1023.9 hPa North 3.5 km/h 11.1 km/h 25 % 0 mm
01:25 20.6 °C -0.1 °C 1023.9 hPa NNW 2.6 km/h 8.7 km/h 25 % 0 mm
01:30 20.6 °C 0.4 °C 1023.9 hPa NNW 1.1 km/h 8.7 km/h 26 % 0 mm
01:35 20.6 °C 0.4 °C 1023.9 hPa NW 2.6 km/h 12.2 km/h 26 % 0 mm
01:40 20.6 °C 0.4 °C 1023.6 hPa WNW 6.1 km/h 14.8 km/h 26 % 0 mm
01:45 20.6 °C 0.4 °C 1023.6 hPa WNW 2.6 km/h 14.8 km/h 26 % 0 mm
01:50 20.6 °C 0.4 °C 1023.6 hPa NW 2.6 km/h 14.8 km/h 26 % 0 mm
01:55 20.5 °C 0.3 °C 1023.6 hPa NNW 3.5 km/h 12.2 km/h 26 % 0 mm
02:00 20.5 °C 0.3 °C 1023.6 hPa NNW 5 km/h 12.2 km/h 26 % 0 mm
02:05 20.5 °C 0.9 °C 1023.6 hPa NNW 2.6 km/h 12.2 km/h 27 % 0 mm
02:10 20.4 °C 0.8 °C 1023.6 hPa North 1.1 km/h 9.7 km/h 27 % 0 mm
02:15 20.4 °C 1.3 °C 1023.2 hPa NNW 2.6 km/h 8.7 km/h 28 % 0 mm
02:20 20.4 °C 1.3 °C 1023.2 hPa NNW 5 km/h 9.7 km/h 28 % 0 mm
02:25 20.3 °C 1.2 °C 1023.6 hPa NNW 6.1 km/h 9.7 km/h 28 % 0 mm
02:30 20.3 °C 1.7 °C 1023.2 hPa NNW 2.6 km/h 9.7 km/h 29 % 0 mm
02:35 20.3 °C 1.2 °C 1023.6 hPa Calm   8.7 km/h 28 % 0 mm
02:40 20.4 °C 1.8 °C 1023.2 hPa NNW 1.1 km/h 7.2 km/h 29 % 0 mm
02:45 20.3 °C 1.7 °C 1023.2 hPa NW 3.5 km/h 12.2 km/h 29 % 0 mm
02:50 20.3 °C 1.7 °C 1023.2 hPa WNW 5 km/h 12.2 km/h 29 % 0 mm
02:55 20.4 °C 2.7 °C 1023.2 hPa WNW 5 km/h 8.7 km/h 31 % 0 mm
03:00 20.4 °C 2.7 °C 1023.2 hPa WNW 3.5 km/h 12.2 km/h 31 % 0 mm
03:06 20.4 °C 3.2 °C 1023.2 hPa NW 2.6 km/h 12.2 km/h 32 % 0 mm
03:11 20.5 °C 2.8 °C 1022.9 hPa NNW 2.6 km/h 13.4 km/h 31 % 0 mm
03:16 20.5 °C 2.3 °C 1022.9 hPa NW 7.2 km/h 13.4 km/h 30 % 0 mm
03:21 20.6 °C 1.9 °C 1022.9 hPa NW 3.5 km/h 15.8 km/h 29 % 0 mm
03:26 20.6 °C 0.9 °C 1022.9 hPa NW 3.5 km/h 15.8 km/h 27 % 0 mm
03:31 20.7 °C 0.5 °C 1022.9 hPa NW 3.5 km/h 13.4 km/h 26 % 0 mm
03:46 20.7 °C 0.5 °C 1022.9 hPa WNW 2.6 km/h 12.2 km/h 26 % 0 mm
03:51 20.7 °C 0 °C 1022.6 hPa West 3.5 km/h 11.1 km/h 25 % 0 mm
03:56 20.7 °C 0 °C 1022.6 hPa West 3.5 km/h 15.8 km/h 25 % 0 mm
04:01 20.6 °C -0.1 °C 1022.6 hPa NW 3.5 km/h 15.8 km/h 25 % 0 mm
04:06 20.6 °C -0.1 °C 1022.6 hPa NNW 2.6 km/h 12.2 km/h 25 % 0 mm
04:11 20.6 °C -0.1 °C 1022.6 hPa NW 5 km/h 15.8 km/h 25 % 0 mm
04:16 20.6 °C -0.1 °C 1022.6 hPa WNW 6.1 km/h 18.3 km/h 25 % 0 mm
04:19 20.6 °C -0.1 °C 1019.9 hPa NW 6.1 km/h 18.3 km/h 25 % 0 mm
04:21 20.6 °C -0.1 °C 1022.6 hPa West 2.6 km/h 18.3 km/h 25 % 0 mm
04:26 20.6 °C 0.9 °C 1022.6 hPa NNW 7.2 km/h 13.4 km/h 27 % 0 mm
04:31 20.6 °C 0.9 °C 1022.6 hPa NW 2.6 km/h 13.4 km/h 27 % 0 mm
04:36 20.6 °C 0.4 °C 1022.6 hPa WNW 11.1 km/h 18.3 km/h 26 % 0 mm
04:41 20.6 °C 0.9 °C 1022.6 hPa NNW 3.5 km/h 18.3 km/h 27 % 0 mm
04:46 20.6 °C 0.4 °C 1022.6 hPa NW 7.2 km/h 18.3 km/h 26 % 0 mm
04:51 20.6 °C -0.1 °C 1022.6 hPa West 5 km/h 15.8 km/h 25 % 0 mm
04:56 20.6 °C -0.7 °C 1022.6 hPa Calm   13.4 km/h 24 % 0 mm
05:01 20.6 °C -0.7 °C 1022.6 hPa NW 1.1 km/h 12.2 km/h 24 % 0 mm
05:06 20.5 °C -0.8 °C 1022.6 hPa NNW 2.6 km/h 12.2 km/h 24 % 0 mm
05:11 20.5 °C -0.8 °C 1022.2 hPa NNW 2.6 km/h 6.1 km/h 24 % 0 mm
05:16 20.5 °C -0.2 °C 1022.2 hPa NNW 3.5 km/h 8.7 km/h 25 % 0 mm
05:22 20.5 °C -0.2 °C 1022.6 hPa North 3.5 km/h 8.7 km/h 25 % 0 mm
05:27 20.5 °C 1.4 °C 1022.2 hPa North 3.5 km/h 8.7 km/h 28 % 0 mm
05:32 20.5 °C 1.9 °C 1022.6 hPa NW 5 km/h 8.7 km/h 29 % 0 mm
05:37 20.5 °C 1.9 °C 1022.2 hPa Calm   8.7 km/h 29 % 0 mm
05:42 20.6 °C 1.9 °C 1022.2 hPa NW 3.5 km/h 12.2 km/h 29 % 0 mm
05:47 20.6 °C 1.9 °C 1022.2 hPa NNW 3.5 km/h 12.2 km/h 29 % 0 mm
05:57 20.5 °C 1.9 °C 1022.2 hPa NW 2.6 km/h 14.8 km/h 29 % 0 mm
06:02 20.5 °C 1.4 °C 1022.2 hPa WNW 3.5 km/h 13.4 km/h 28 % 0 mm
06:07 20.5 °C 1.4 °C 1022.2 hPa West 1.1 km/h 13.4 km/h 28 % 0 mm
06:12 20.5 °C 1.4 °C 1022.2 hPa NW 3.5 km/h 8.7 km/h 28 % 0 mm
06:17 20.5 °C 1.9 °C 1022.2 hPa NNW 2.6 km/h 9.7 km/h 29 % 0 mm
06:22 20.5 °C 1.9 °C 1022.2 hPa NW 5 km/h 13.4 km/h 29 % 0 mm
06:27 20.4 °C 1.8 °C 1022.2 hPa NW 2.6 km/h 13.4 km/h 29 % 0 mm
06:32 20.4 °C 1.8 °C 1022.2 hPa NW 3.5 km/h 11.1 km/h 29 % 0 mm
06:37 20.4 °C 1.8 °C 1022.2 hPa NNW 3.5 km/h 7.2 km/h 29 % 0 mm
06:42 20.4 °C 1.8 °C 1022.2 hPa NNW 2.6 km/h 11.1 km/h 29 % 0 mm
06:47 20.4 °C 1.8 °C 1022.2 hPa NNW 6.1 km/h 11.1 km/h 29 % 0 mm
06:52 20.4 °C 1.8 °C 1022.2 hPa NNW 1.1 km/h 9.7 km/h 29 % 0 mm
06:57 20.4 °C 1.8 °C 1022.2 hPa NNW 5 km/h 9.7 km/h 29 % 0 mm
07:02 20.4 °C 1.8 °C 1022.2 hPa Calm   8.7 km/h 29 % 0 mm
07:07 20.4 °C 2.3 °C 1022.2 hPa NW 1.1 km/h 8.7 km/h 30 % 0 mm
07:12 20.4 °C 2.3 °C 1022.2 hPa NW 1.1 km/h 6.1 km/h 30 % 0 mm
07:17 20.4 °C 2.7 °C 1022.2 hPa NW 1.1 km/h 6.1 km/h 31 % 0 mm
07:22 20.3 °C 3.1 °C 1022.2 hPa WNW 2.6 km/h 9.7 km/h 32 % 0 mm
07:27 20.4 °C 3.2 °C 1022.2 hPa WNW 3.5 km/h 9.7 km/h 32 % 0 mm
07:32 20.4 °C 3.2 °C 1022.2 hPa WNW 1.1 km/h 8.7 km/h 32 % 0 mm
07:37 20.4 °C 3.2 °C 1021.9 hPa WNW 3.5 km/h 11.1 km/h 32 % 0 mm
07:42 20.4 °C 3.6 °C 1022.2 hPa NW 3.5 km/h 11.1 km/h 33 % 0 mm
07:47 20.5 °C 3.3 °C 1022.2 hPa NW 2.6 km/h 11.1 km/h 32 % 0 mm
07:52 20.5 °C 3.3 °C 1022.2 hPa NW 5 km/h 9.7 km/h 32 % 0 mm
07:57 20.4 °C 3.2 °C 1021.9 hPa WNW 5 km/h 11.1 km/h 32 % 0 mm
08:02 20.4 °C 3.2 °C 1022.2 hPa NW 1.1 km/h 11.1 km/h 32 % 0 mm
08:07 20.4 °C 3.2 °C 1021.9 hPa NNW 3.5 km/h 11.1 km/h 32 % 0 mm
08:12 20.4 °C 3.2 °C 1021.9 hPa NW 5 km/h 11.1 km/h 32 % 0 mm
08:17 20.4 °C 3.2 °C 1022.2 hPa WNW 6.1 km/h 13.4 km/h 32 % 0 mm
08:22 20.5 °C 2.3 °C 1021.9 hPa WNW 2.6 km/h 14.8 km/h 30 % 0 mm
08:27 20.6 °C 2.4 °C 1022.2 hPa WNW 3.5 km/h 14.8 km/h 30 % 0 mm
08:32 20.6 °C 1.9 °C 1022.2 hPa WNW 3.5 km/h 12.2 km/h 29 % 0 mm
08:37 20.7 °C 2.1 °C 1022.2 hPa West 8.7 km/h 14.8 km/h 29 % 0 mm
08:42 20.8 °C 2.1 °C 1022.2 hPa NW 2.6 km/h 14.8 km/h 29 % 0 mm
08:47 20.8 °C 2.6 °C 1022.2 hPa NNW 2.6 km/h 11.1 km/h 30 % 0 mm
08:53 20.8 °C 2.6 °C 1022.2 hPa NNW 3.5 km/h 7.2 km/h 30 % 0 mm
MeteoMachico
Cumprimentos de Weather Underground - 2 mb

Script original por  Jim McMurry - jmcmurry@mwt.net Adaptado para o modelo por  Wim van der Kuil - Leuven-Template.eu

Equipamento que usamos:

Estação Meteorológica
Weatherwise ws-1080

IPCAM
Dericam H502W

Servidor
Digital Ocean

Weatherwise ws-1080

Dericam H502W

Digital Ocean